createdAt,value
2018-07-19T18:47:41.522Z,35.02
2018-07-19T18:50:10.882Z,34.59
2018-07-19T18:52:40.704Z,34.71
2018-07-19T18:55:10.073Z,34.96
2018-07-19T18:57:39.792Z,36.38
2018-07-19T19:00:08.746Z,37.09
2018-07-19T19:02:37.441Z,36.35
2018-07-19T19:05:06.627Z,36.13
2018-07-19T19:07:35.948Z,35.94
2018-07-19T19:10:05.613Z,36.50
2018-07-19T19:12:34.808Z,37.74
2018-07-19T19:15:03.857Z,37.52
2018-07-19T19:17:33.296Z,37.22
2018-07-19T19:20:02.409Z,38.31
2018-07-19T19:22:31.185Z,37.34
2018-07-19T19:24:59.854Z,38.20
2018-07-19T19:27:28.691Z,37.90
2018-07-19T19:29:58.173Z,39.38
2018-07-19T19:32:27.375Z,39.48
2018-07-19T19:34:56.557Z,39.10
2018-07-19T19:37:26.851Z,38.99
2018-07-19T19:39:55.869Z,39.42
2018-07-19T19:42:24.930Z,39.87
2018-07-19T19:44:53.574Z,40.27
2018-07-19T19:47:23.984Z,40.77
2018-07-19T19:49:54.686Z,40.47
2018-07-19T19:52:23.915Z,41.23
2018-07-19T19:54:53.457Z,40.89
2018-07-19T19:57:23.234Z,40.40
2018-07-19T19:59:52.143Z,41.65
2018-07-19T20:02:21.025Z,41.78
2018-07-19T20:04:49.700Z,41.50
2018-07-19T20:07:18.326Z,41.41
2018-07-19T20:09:47.304Z,42.03
2018-07-19T20:12:16.816Z,41.92
2018-07-19T20:14:45.471Z,43.04
2018-07-19T20:17:14.499Z,42.73
2018-07-19T20:19:43.474Z,43.04
2018-07-19T20:22:12.158Z,42.81
2018-07-19T20:24:41.339Z,43.63
2018-07-19T20:27:10.222Z,43.58
2018-07-19T20:29:45.535Z,44.01
2018-07-19T20:32:14.305Z,44.17
2018-07-19T20:34:42.969Z,44.51
2018-07-19T20:37:11.660Z,44.17
2018-07-19T20:39:40.337Z,44.99
2018-07-19T20:58:23.436Z,46.17
2018-07-19T21:00:51.597Z,45.59
2018-07-19T21:03:19.265Z,46.58
2018-07-19T21:05:46.866Z,46.44
2018-07-19T21:08:14.656Z,46.76
2018-07-19T21:10:42.480Z,46.25
2018-07-19T21:13:10.138Z,46.41
2018-07-19T21:15:37.919Z,47.37
2018-07-19T21:18:05.638Z,46.74
2018-07-19T21:20:33.255Z,46.70
2018-07-19T21:23:00.910Z,47.07
2018-07-19T21:25:30.071Z,47.83
2018-07-19T21:27:57.818Z,47.46
2018-07-19T21:30:25.900Z,48.30
2018-07-19T21:32:53.883Z,48.09
2018-07-19T21:35:21.770Z,47.73
2018-07-19T21:37:49.601Z,48.14
2018-07-19T21:40:17.852Z,48.14
2018-07-19T21:42:45.361Z,47.24
2018-07-19T21:45:12.848Z,47.66
2018-07-19T21:47:40.380Z,48.01
2018-07-19T21:50:09.223Z,47.54
2018-07-19T21:52:36.886Z,47.86
2018-07-19T21:55:04.465Z,48.46
2018-07-19T21:57:32.180Z,47.76
2018-07-19T21:59:59.697Z,47.67
2018-07-19T22:02:27.254Z,48.21
2018-07-19T22:04:55.064Z,48.02
2018-07-19T22:07:22.638Z,47.78
2018-07-19T22:09:50.186Z,47.71
2018-07-19T22:12:18.296Z,48.16
2018-07-19T22:14:46.147Z,48.15
2018-07-19T22:17:13.664Z,47.60
2018-07-19T22:19:41.438Z,47.21
2018-07-19T22:22:09.325Z,47.27
2018-07-19T22:24:37.019Z,47.79
2018-07-19T22:27:04.684Z,47.59
2018-07-19T22:29:32.699Z,47.81
2018-07-19T22:32:01.461Z,48.00
2018-07-19T22:34:29.091Z,47.74
2018-07-19T22:36:56.740Z,47.23
2018-07-19T22:39:24.531Z,47.43
2018-07-19T22:41:52.208Z,48.06
2018-07-19T22:44:19.761Z,47.59
2018-07-19T22:46:47.398Z,48.19
2018-07-19T22:49:14.926Z,47.85
2018-07-19T22:51:42.382Z,48.26
2018-07-19T22:54:09.877Z,48.14
2018-07-19T22:56:37.527Z,48.91
2018-07-19T22:59:05.271Z,49.12
2018-07-19T23:01:33.767Z,49.00
2018-07-19T23:04:01.414Z,48.98
2018-07-19T23:06:30.010Z,48.98
2018-07-19T23:08:57.345Z,49.64
2018-07-19T23:11:24.947Z,49.17
2018-07-19T23:13:52.497Z,49.52
2018-07-19T23:16:20.577Z,49.91
2018-07-19T23:18:48.302Z,49.24
2018-07-19T23:21:15.758Z,49.44
2018-07-19T23:23:44.505Z,49.96
2018-07-19T23:26:12.207Z,49.80
2018-07-19T23:28:39.626Z,50.28
2018-07-19T23:31:07.420Z,49.76
2018-07-19T23:33:35.103Z,49.77
2018-07-19T23:36:07.490Z,50.00
2018-07-19T23:39:18.343Z,50.47
2018-07-19T23:41:53.232Z,50.06
2018-07-19T23:44:25.305Z,50.31
2018-07-19T23:46:57.636Z,49.90
2018-07-19T23:49:25.548Z,50.44
2018-07-19T23:51:53.572Z,50.85
2018-07-19T23:54:20.980Z,51.20
2018-07-19T23:56:48.510Z,51.61
2018-07-19T23:59:16.345Z,51.65
